createdAt,value
2022-09-17T00:01:25.265Z,88.82
2022-09-17T00:03:55.849Z,88.82
2022-09-17T00:06:25.273Z,89.08
2022-09-17T00:08:54.045Z,89.53
2022-09-17T00:11:25.763Z,89.51
2022-09-17T00:13:53.903Z,89.37
2022-09-17T00:16:35.355Z,89.25
2022-09-17T00:19:03.498Z,89.20
2022-09-17T00:21:30.853Z,89.37
2022-09-17T00:24:00.823Z,89.44
2022-09-17T00:26:29.448Z,89.09
2022-09-17T00:28:57.874Z,89.55
2022-09-17T00:31:26.821Z,89.39
2022-09-17T00:33:54.285Z,89.39
2022-09-17T00:36:22.225Z,89.40
2022-09-17T00:38:54.498Z,90.21
2022-09-17T00:41:23.259Z,90.26
2022-09-17T00:43:51.810Z,90.06
2022-09-17T00:46:25.499Z,89.94
2022-09-17T00:48:55.542Z,90.31
2022-09-17T00:51:29.007Z,89.93
2022-09-17T00:53:56.862Z,90.08
2022-09-17T00:56:27.998Z,90.24
2022-09-17T00:58:55.934Z,89.97
2022-09-17T01:01:23.915Z,90.15
2022-09-17T01:03:50.992Z,90.13
2022-09-17T01:06:59.481Z,90.32
2022-09-17T01:09:43.995Z,90.42
2022-09-17T01:12:37.711Z,90.67
2022-09-17T01:15:04.878Z,90.63
2022-09-17T01:17:46.974Z,90.66
2022-09-17T01:20:51.089Z,90.58
2022-09-17T01:23:41.151Z,90.89
2022-09-17T01:26:39.174Z,90.61
2022-09-17T01:29:33.849Z,90.84
2022-09-17T01:32:09.068Z,90.79
2022-09-17T01:34:46.884Z,91.34
2022-09-17T01:37:30.890Z,91.48
2022-09-17T01:40:08.926Z,91.84
2022-09-17T01:42:43.791Z,92.11
2022-09-17T01:45:28.357Z,92.76
2022-09-17T01:48:00.478Z,93.23
2022-09-17T01:50:32.040Z,93.06
2022-09-17T01:53:00.361Z,93.64
2022-09-17T01:55:33.611Z,93.37
2022-09-17T01:58:03.726Z,93.25
2022-09-17T02:00:30.839Z,94.26
2022-09-17T02:03:05.080Z,94.03
2022-09-17T02:05:45.591Z,94.30
2022-09-17T02:08:21.008Z,93.74
2022-09-17T02:10:57.995Z,93.75
2022-09-17T02:13:33.560Z,94.08
2022-09-17T02:16:28.182Z,93.91
2022-09-17T02:19:04.943Z,93.90
2022-09-17T02:21:44.644Z,94.12
2022-09-17T02:24:38.134Z,93.57
2022-09-17T02:27:22.120Z,93.72
2022-09-17T02:29:49.370Z,93.94
2022-09-17T02:32:16.725Z,94.05
2022-09-17T02:34:43.739Z,94.14
2022-09-17T02:37:11.517Z,93.86
2022-09-17T02:39:40.006Z,93.81
2022-09-17T02:42:33.445Z,93.72
2022-09-17T02:45:25.225Z,93.77
2022-09-17T02:48:10.918Z,92.96
2022-09-17T02:50:49.324Z,93.23
2022-09-17T02:53:31.883Z,92.74
2022-09-17T02:56:09.542Z,93.03
2022-09-17T02:58:45.818Z,93.54
2022-09-17T03:01:31.196Z,93.04
2022-09-17T03:04:01.259Z,93.75
2022-09-17T03:06:28.955Z,93.56
2022-09-17T03:08:57.340Z,93.43
2022-09-17T03:11:24.335Z,93.60
2022-09-17T03:13:52.076Z,93.28
2022-09-17T03:16:19.191Z,93.30
2022-09-17T03:18:48.861Z,93.07
2022-09-17T03:21:16.115Z,93.32
2022-09-17T03:23:43.221Z,93.36
2022-09-17T03:26:10.263Z,93.16
2022-09-17T03:28:37.577Z,93.45
2022-09-17T03:31:05.890Z,93.32
2022-09-17T03:33:33.211Z,93.63
2022-09-17T03:36:00.554Z,93.20
2022-09-17T03:38:27.529Z,93.59
2022-09-17T03:41:05.504Z,93.34
2022-09-17T03:43:33.275Z,93.45
2022-09-17T03:46:00.687Z,92.95
2022-09-17T03:48:27.789Z,93.84
2022-09-17T03:50:55.731Z,93.89
2022-09-17T03:53:22.680Z,93.36
2022-09-17T03:55:50.187Z,93.06
2022-09-17T03:58:17.438Z,93.25
2022-09-17T04:00:45.133Z,92.94
2022-09-17T04:03:12.817Z,93.47
2022-09-17T04:05:40.050Z,93.34
2022-09-17T04:08:06.963Z,92.93
2022-09-17T04:10:33.934Z,93.00
2022-09-17T04:13:01.237Z,92.63
2022-09-17T04:15:28.195Z,93.26
2022-09-17T04:17:57.906Z,93.15
2022-09-17T04:20:25.544Z,93.57
2022-09-17T04:22:53.594Z,93.68
2022-09-17T04:25:21.092Z,93.38
2022-09-17T04:27:48.431Z,93.19
2022-09-17T04:30:15.710Z,93.44
2022-09-17T04:32:46.679Z,92.89
2022-09-17T04:35:14.077Z,92.74
2022-09-17T04:37:41.132Z,93.45
2022-09-17T04:40:09.010Z,92.87
2022-09-17T04:42:36.259Z,93.00
2022-09-17T04:45:03.393Z,93.34
2022-09-17T04:47:30.361Z,93.12
2022-09-17T04:49:57.494Z,93.06
2022-09-17T04:52:28.899Z,92.95
2022-09-17T04:54:57.750Z,93.22
2022-09-17T04:57:25.683Z,93.32
2022-09-17T04:59:52.615Z,93.10
2022-09-17T05:02:21.614Z,93.15
2022-09-17T05:04:49.702Z,93.21
2022-09-17T05:07:18.241Z,93.39
2022-09-17T05:09:45.087Z,93.06
2022-09-17T05:12:12.955Z,92.96
2022-09-17T05:14:42.555Z,92.94
2022-09-17T05:17:10.416Z,92.54
2022-09-17T05:19:40.859Z,92.21
2022-09-17T05:22:10.908Z,92.77
2022-09-17T05:24:41.083Z,92.74
2022-09-17T05:27:14.251Z,92.85
2022-09-17T05:29:43.172Z,92.12
2022-09-17T05:32:10.319Z,91.67
2022-09-17T05:34:37.474Z,91.25
2022-09-17T05:37:05.932Z,91.49
2022-09-17T05:39:33.147Z,91.33
2022-09-17T05:42:03.420Z,90.25
2022-09-17T05:44:30.650Z,89.51
2022-09-17T05:46:57.625Z,89.32
2022-09-17T05:49:24.700Z,89.82
2022-09-17T05:51:53.079Z,89.42
2022-09-17T05:54:28.252Z,89.32
2022-09-17T05:56:58.892Z,89.39
2022-09-17T05:59:27.564Z,89.07
2022-09-17T06:01:54.655Z,88.97
2022-09-17T06:04:22.313Z,88.14
2022-09-17T06:06:49.634Z,88.21
2022-09-17T06:09:17.882Z,88.29
2022-09-17T06:11:45.220Z,87.83
2022-09-17T06:14:12.232Z,87.64
2022-09-17T06:16:39.149Z,87.57
2022-09-17T06:19:06.778Z,87.49
2022-09-17T06:21:33.870Z,87.59
2022-09-17T06:24:01.822Z,88.10
2022-09-17T06:26:30.433Z,87.44
2022-09-17T06:29:00.082Z,87.15
2022-09-17T06:31:27.569Z,87.09
2022-09-17T06:33:58.517Z,87.66
2022-09-17T06:36:25.631Z,87.36
2022-09-17T06:38:52.884Z,87.64
2022-09-17T06:41:20.232Z,87.25
2022-09-17T06:43:47.222Z,86.96
2022-09-17T06:46:17.054Z,86.75
2022-09-17T06:48:47.441Z,86.90
2022-09-17T06:51:22.722Z,87.06
2022-09-17T06:53:51.048Z,87.14
2022-09-17T06:56:28.245Z,87.26
2022-09-17T06:58:55.466Z,87.16
2022-09-17T07:01:22.600Z,86.65
2022-09-17T07:03:53.153Z,86.35
2022-09-17T07:06:21.000Z,85.75
2022-09-17T07:08:48.146Z,86.11
2022-09-17T07:11:21.361Z,86.22
2022-09-17T07:13:48.944Z,85.87
2022-09-17T07:16:16.019Z,86.19
2022-09-17T07:18:43.744Z,86.39
2022-09-17T07:21:11.206Z,85.63
2022-09-17T07:23:38.549Z,86.04
2022-09-17T07:26:15.730Z,85.65
2022-09-17T07:28:45.253Z,85.05
2022-09-17T07:31:16.399Z,84.85
2022-09-17T07:33:45.861Z,84.56
2022-09-17T07:36:16.511Z,85.02
2022-09-17T07:38:46.213Z,85.39
2022-09-17T07:41:16.701Z,85.33
2022-09-17T07:43:44.398Z,84.37
2022-09-17T07:46:16.333Z,84.30
2022-09-17T07:48:43.902Z,84.20
2022-09-17T07:51:19.797Z,84.14
2022-09-17T07:53:48.001Z,84.04
2022-09-17T07:59:02.837Z,83.12
2022-09-17T08:01:34.151Z,82.54
2022-09-17T08:04:01.582Z,82.88
2022-09-17T08:06:28.798Z,82.39
2022-09-17T08:08:57.898Z,82.29
2022-09-17T08:11:56.039Z,82.00
2022-09-17T08:14:17.354Z,81.59
2022-09-17T08:16:46.573Z,81.27
2022-09-17T08:19:13.772Z,81.50
2022-09-17T08:21:43.226Z,81.19
2022-09-17T08:24:10.515Z,81.41
2022-09-17T08:26:38.600Z,81.79
2022-09-17T08:29:06.103Z,81.57
2022-09-17T08:31:37.823Z,81.52
2022-09-17T08:36:50.926Z,81.16
2022-09-17T08:39:18.404Z,80.79
2022-09-17T08:42:16.316Z,81.05
2022-09-17T08:44:52.171Z,80.49
2022-09-17T08:50:45.037Z,79.16
2022-09-17T08:53:23.689Z,79.45
2022-09-17T08:56:00.522Z,79.33
2022-09-17T08:58:45.803Z,79.58
2022-09-17T09:01:32.953Z,78.85
2022-09-17T09:04:14.743Z,79.18
2022-09-17T09:06:51.823Z,79.64
2022-09-17T09:09:26.362Z,79.24
2022-09-17T09:12:03.041Z,79.20
2022-09-17T09:14:46.796Z,78.67
2022-09-17T09:17:18.541Z,79.34
2022-09-17T09:19:46.979Z,79.37
2022-09-17T09:22:26.684Z,79.40
2022-09-17T09:25:18.874Z,79.75
2022-09-17T09:27:57.921Z,79.52
2022-09-17T09:30:33.598Z,79.49
2022-09-17T09:33:17.934Z,78.77
2022-09-17T09:35:45.632Z,78.98
2022-09-17T09:38:35.100Z,79.22
2022-09-17T09:41:08.528Z,79.37
2022-09-17T09:44:02.870Z,78.67
2022-09-17T09:46:49.183Z,78.96
2022-09-17T09:49:16.097Z,79.05
2022-09-17T09:55:26.783Z,79.70
2022-09-17T09:58:18.904Z,78.61
2022-09-17T10:00:46.226Z,78.47
2022-09-17T10:03:28.183Z,78.70
2022-09-17T10:06:02.168Z,78.88
2022-09-17T10:08:54.864Z,79.58
2022-09-17T10:11:27.626Z,79.12
2022-09-17T10:14:24.520Z,79.67
2022-09-17T10:17:15.093Z,78.86
2022-09-17T10:19:43.405Z,79.28
2022-09-17T10:22:19.565Z,79.08
2022-09-17T10:24:47.369Z,78.43
2022-09-17T10:27:18.289Z,78.49
2022-09-17T10:29:58.272Z,78.52
2022-09-17T10:32:30.937Z,78.67
2022-09-17T10:35:18.489Z,79.19
2022-09-17T10:37:48.689Z,79.52
2022-09-17T10:40:21.358Z,79.34
2022-09-17T10:43:23.653Z,79.06
2022-09-17T10:45:59.978Z,78.68
2022-09-17T10:48:34.262Z,77.71
2022-09-17T10:51:06.909Z,77.97
2022-09-17T10:54:13.356Z,77.33
2022-09-17T10:56:50.033Z,77.77
2022-09-17T10:59:41.835Z,77.99
2022-09-17T11:02:33.976Z,78.10
2022-09-17T11:05:39.767Z,78.12
2022-09-17T11:08:16.770Z,77.80
2022-09-17T11:10:59.173Z,77.54
2022-09-17T11:13:44.942Z,76.85
2022-09-17T11:16:30.681Z,76.66
2022-09-17T11:19:14.698Z,76.27
2022-09-17T11:21:59.812Z,76.08
2022-09-17T11:24:27.014Z,76.40
2022-09-17T11:27:03.695Z,75.90
2022-09-17T11:29:30.904Z,75.41
2022-09-17T11:32:23.522Z,75.81
2022-09-17T11:35:15.804Z,76.41
2022-09-17T11:37:51.839Z,76.04
2022-09-17T11:40:38.157Z,76.26
2022-09-17T11:43:15.418Z,76.54
2022-09-17T11:45:56.439Z,76.54
2022-09-17T11:48:35.066Z,76.68
2022-09-17T11:51:33.138Z,76.87
2022-09-17T11:54:32.358Z,76.71
2022-09-17T11:57:13.017Z,77.01
2022-09-17T11:59:56.517Z,77.92
2022-09-17T12:02:34.353Z,78.84
2022-09-17T12:05:33.808Z,79.36
2022-09-17T12:08:45.760Z,79.05
2022-09-17T12:11:36.220Z,79.49
2022-09-17T12:14:19.587Z,80.13
2022-09-17T12:16:52.985Z,80.80
2022-09-17T12:19:36.312Z,80.94
2022-09-17T12:22:26.582Z,81.33
2022-09-17T12:24:54.683Z,82.25
2022-09-17T12:27:39.979Z,82.42
2022-09-17T12:30:22.795Z,82.96
2022-09-17T12:33:08.301Z,83.52
2022-09-17T12:36:04.369Z,84.62
2022-09-17T12:38:37.893Z,84.53
2022-09-17T12:41:15.919Z,84.90
2022-09-17T12:44:15.225Z,85.16
2022-09-17T12:46:58.165Z,85.04
2022-09-17T12:50:35.986Z,86.22
2022-09-17T12:56:42.314Z,87.24
2022-09-17T12:59:15.782Z,87.43
2022-09-17T13:01:52.506Z,87.39
2022-09-17T13:05:00.644Z,87.91
2022-09-17T13:07:56.249Z,87.99
2022-09-17T13:10:45.421Z,87.24
2022-09-17T13:13:35.856Z,87.32
2022-09-17T13:16:51.285Z,86.98
2022-09-17T13:19:42.094Z,87.72
2022-09-17T13:22:19.859Z,87.04
2022-09-17T13:25:01.178Z,87.39
2022-09-17T13:27:29.287Z,87.15
2022-09-17T13:29:56.314Z,86.38
2022-09-17T13:32:32.443Z,86.88
2022-09-17T13:35:12.223Z,87.04
2022-09-17T13:37:58.704Z,86.83
2022-09-17T13:40:29.715Z,87.91
2022-09-17T13:42:59.518Z,87.38
2022-09-17T13:45:27.332Z,88.42
2022-09-17T13:47:57.644Z,88.02
2022-09-17T13:50:44.826Z,87.84
2022-09-17T13:53:15.068Z,87.36
2022-09-17T13:55:51.785Z,86.92
2022-09-17T13:58:18.958Z,86.85
2022-09-17T14:00:55.600Z,86.90
2022-09-17T14:03:34.310Z,87.40
2022-09-17T14:06:04.628Z,86.71
2022-09-17T14:08:58.732Z,86.14
2022-09-17T14:11:26.740Z,86.29
2022-09-17T14:13:55.371Z,86.48
2022-09-17T14:16:28.508Z,85.86
2022-09-17T14:19:02.304Z,85.70
2022-09-17T14:21:34.749Z,85.53
2022-09-17T14:24:13.886Z,85.67
2022-09-17T14:26:49.937Z,85.90
2022-09-17T14:29:32.178Z,85.75
2022-09-17T14:31:59.244Z,86.53
2022-09-17T14:34:27.394Z,86.48
2022-09-17T14:36:56.742Z,86.01
2022-09-17T14:39:28.560Z,86.35
2022-09-17T14:41:57.681Z,86.62
2022-09-17T14:47:17.627Z,86.68
2022-09-17T14:49:44.665Z,86.37
2022-09-17T14:52:32.804Z,86.96
2022-09-17T14:55:16.069Z,86.38
2022-09-17T14:57:47.217Z,86.68
2022-09-17T15:00:24.289Z,86.45
2022-09-17T15:02:59.740Z,86.57
2022-09-17T15:05:40.814Z,86.37
2022-09-17T15:08:11.346Z,86.42
2022-09-17T15:10:59.575Z,86.00
2022-09-17T15:13:31.155Z,86.10
2022-09-17T15:16:15.551Z,86.30
2022-09-17T15:18:54.709Z,86.25
2022-09-17T15:21:24.690Z,86.15
2022-09-17T15:23:55.384Z,86.42
2022-09-17T15:26:27.841Z,86.53
2022-09-17T15:28:57.725Z,85.94
2022-09-17T15:31:24.901Z,85.80
2022-09-17T15:33:51.971Z,85.80
2022-09-17T15:36:31.987Z,85.74
2022-09-17T15:39:00.363Z,86.19
2022-09-17T15:41:37.265Z,85.96
2022-09-17T15:44:30.202Z,86.25
2022-09-17T15:47:36.455Z,85.95
2022-09-17T15:50:17.462Z,85.84
2022-09-17T15:52:46.742Z,85.97
2022-09-17T15:55:38.503Z,85.84
2022-09-17T16:01:39.523Z,85.75
2022-09-17T16:04:27.680Z,86.15
2022-09-17T16:07:03.158Z,86.58
2022-09-17T16:09:41.738Z,86.67
2022-09-17T16:12:15.004Z,86.84
2022-09-17T16:14:47.123Z,86.45
2022-09-17T16:17:28.305Z,86.52
2022-09-17T16:19:56.673Z,86.68
2022-09-17T16:22:23.696Z,86.65
2022-09-17T16:24:50.631Z,86.86
2022-09-17T16:27:30.955Z,87.18
2022-09-17T16:30:05.284Z,87.06
2022-09-17T16:32:32.578Z,86.67
2022-09-17T16:35:00.613Z,86.85
2022-09-17T16:37:28.787Z,86.55
2022-09-17T16:39:56.366Z,86.92
2022-09-17T16:42:23.292Z,86.57
2022-09-17T16:44:50.445Z,86.91
2022-09-17T16:47:19.826Z,86.88
2022-09-17T16:49:47.912Z,87.04
2022-09-17T16:52:14.844Z,86.22
2022-09-17T16:54:42.186Z,86.56
2022-09-17T16:57:09.460Z,86.46
2022-09-17T16:59:36.602Z,86.65
2022-09-17T17:02:04.620Z,86.98
2022-09-17T17:04:31.698Z,87.15
2022-09-17T17:07:01.616Z,87.37
2022-09-17T17:09:29.323Z,87.64
2022-09-17T17:11:56.420Z,87.60
2022-09-17T17:14:23.628Z,87.55
2022-09-17T17:16:50.913Z,87.68
2022-09-17T17:19:18.227Z,87.97
2022-09-17T17:21:47.248Z,88.35
2022-09-17T17:24:20.134Z,88.21
2022-09-17T17:26:48.593Z,87.65
2022-09-17T17:29:16.856Z,87.73
2022-09-17T17:31:44.166Z,88.28
2022-09-17T17:34:12.581Z,88.34
2022-09-17T17:36:43.174Z,88.57
2022-09-17T17:39:11.597Z,88.80
2022-09-17T17:41:39.909Z,88.47
2022-09-17T17:44:09.584Z,88.53
2022-09-17T17:46:37.676Z,88.66
2022-09-17T17:49:10.846Z,89.03
2022-09-17T17:51:40.908Z,89.00
2022-09-17T17:54:08.162Z,89.27
2022-09-17T17:56:35.162Z,89.71
2022-09-17T17:59:02.398Z,89.90
2022-09-17T18:01:31.866Z,90.18
2022-09-17T18:04:00.727Z,90.17
2022-09-17T18:06:29.026Z,89.73
2022-09-17T18:08:56.159Z,89.57
2022-09-17T18:11:23.510Z,89.90
2022-09-17T18:13:53.534Z,89.75
2022-09-17T18:16:21.576Z,89.66
2022-09-17T18:18:49.028Z,89.53
2022-09-17T18:21:21.991Z,89.51
2022-09-17T18:23:53.080Z,89.80
2022-09-17T18:26:25.303Z,89.53
2022-09-17T18:28:53.277Z,90.04
2022-09-17T18:31:25.072Z,89.79
2022-09-17T18:34:02.948Z,90.22
2022-09-17T18:36:33.079Z,90.29
2022-09-17T18:39:56.897Z,90.24
2022-09-17T18:41:50.835Z,90.54
2022-09-17T18:44:22.166Z,90.64
2022-09-17T18:46:51.281Z,90.78
2022-09-17T18:49:18.918Z,90.31
2022-09-17T18:51:45.975Z,90.32
2022-09-17T18:54:13.342Z,90.71
2022-09-17T18:56:44.439Z,90.94
2022-09-17T18:59:11.785Z,90.92
2022-09-17T19:01:39.049Z,91.41
2022-09-17T19:04:15.962Z,91.16
2022-09-17T19:06:44.233Z,91.39
2022-09-17T19:09:14.602Z,91.57
2022-09-17T19:11:41.726Z,91.29
2022-09-17T19:14:13.074Z,91.30
2022-09-17T19:16:40.853Z,91.82
2022-09-17T19:19:08.190Z,91.30
2022-09-17T19:21:35.483Z,91.64
2022-09-17T19:24:04.234Z,91.69
2022-09-17T19:26:31.337Z,91.78
2022-09-17T19:29:01.063Z,92.30
2022-09-17T19:31:32.436Z,91.94
2022-09-17T19:34:00.459Z,92.36
2022-09-17T19:36:28.967Z,92.07
2022-09-17T19:38:59.374Z,92.33
2022-09-17T19:41:26.510Z,92.17
2022-09-17T19:43:58.673Z,91.74
2022-09-17T19:46:26.794Z,92.18
2022-09-17T19:48:55.984Z,91.92
2022-09-17T19:51:25.596Z,92.06
2022-09-17T19:53:55.230Z,91.87
2022-09-17T19:56:25.060Z,91.88
2022-09-17T19:58:53.940Z,91.81
2022-09-17T20:01:21.605Z,92.02
2022-09-17T20:03:48.847Z,91.78
2022-09-17T20:06:18.733Z,92.15
2022-09-17T20:08:54.322Z,91.80
2022-09-17T20:11:26.164Z,91.89
2022-09-17T20:14:06.709Z,92.39
2022-09-17T20:16:35.921Z,91.84
2022-09-17T20:19:03.654Z,91.95
2022-09-17T20:21:31.140Z,91.71
2022-09-17T20:23:58.887Z,91.80
2022-09-17T20:26:27.462Z,91.56
2022-09-17T20:28:55.618Z,91.65
2022-09-17T20:31:27.981Z,91.64
2022-09-17T20:33:57.582Z,91.57
2022-09-17T20:36:27.893Z,91.69
2022-09-17T20:39:11.393Z,91.94
2022-09-17T20:41:40.628Z,91.50
2022-09-17T20:44:07.995Z,91.71
2022-09-17T20:46:35.202Z,92.12
2022-09-17T20:49:02.569Z,92.11
2022-09-17T20:51:30.707Z,92.11
2022-09-17T20:53:57.965Z,91.92
2022-09-17T20:56:31.609Z,92.14
2022-09-17T20:59:15.374Z,92.28
2022-09-17T21:01:45.448Z,92.35
2022-09-17T21:04:16.161Z,92.06
2022-09-17T21:06:44.429Z,92.13
2022-09-17T21:09:16.805Z,92.31
2022-09-17T21:11:48.793Z,92.39
2022-09-17T21:14:17.552Z,92.12
2022-09-17T21:16:46.629Z,92.16
2022-09-17T21:19:16.579Z,92.60
2022-09-17T21:21:44.346Z,92.44
2022-09-17T21:24:12.950Z,92.21
2022-09-17T21:26:40.200Z,92.26
2022-09-17T21:29:08.268Z,92.24
2022-09-17T21:31:37.184Z,92.49
2022-09-17T21:34:10.889Z,92.02
2022-09-17T21:36:40.242Z,92.14
2022-09-17T21:39:15.001Z,92.34
2022-09-17T21:41:43.437Z,92.24
2022-09-17T21:44:11.945Z,91.79
2022-09-17T21:46:40.440Z,92.00
2022-09-17T21:49:07.472Z,91.74
2022-09-17T21:51:38.949Z,91.96
2022-09-17T21:54:09.453Z,92.25
2022-09-17T21:56:37.321Z,92.40
2022-09-17T21:59:06.736Z,91.93
2022-09-17T22:01:43.789Z,91.99
2022-09-17T22:04:16.515Z,92.19
2022-09-17T22:06:45.354Z,92.05
2022-09-17T22:09:17.691Z,92.82
2022-09-17T22:11:45.337Z,93.11
2022-09-17T22:14:19.507Z,93.12
2022-09-17T22:16:49.540Z,93.63
2022-09-17T22:19:18.518Z,93.61
2022-09-17T22:21:51.173Z,93.41
2022-09-17T22:24:21.213Z,93.48
2022-09-17T22:26:55.974Z,93.40
2022-09-17T22:29:25.054Z,93.63
2022-09-17T22:31:52.386Z,93.34
2022-09-17T22:34:21.497Z,93.44
2022-09-17T22:36:49.420Z,93.66
2022-09-17T22:39:19.163Z,93.49
2022-09-17T22:41:47.230Z,93.08
2022-09-17T22:44:17.812Z,93.35
2022-09-17T22:46:47.464Z,93.32
2022-09-17T22:49:15.755Z,93.08
2022-09-17T22:51:44.019Z,93.04
2022-09-17T22:54:12.575Z,92.93
2022-09-17T22:56:40.361Z,92.92
2022-09-17T22:59:08.021Z,93.00
2022-09-17T23:01:36.603Z,92.89
2022-09-17T23:04:04.451Z,92.73
2022-09-17T23:06:34.838Z,92.82
2022-09-17T23:09:02.474Z,93.02
2022-09-17T23:11:35.595Z,92.62
2022-09-17T23:14:09.499Z,92.96
2022-09-17T23:16:39.783Z,92.79
2022-09-17T23:19:11.545Z,93.25
2022-09-17T23:21:39.417Z,92.92
2022-09-17T23:24:08.763Z,92.78
2022-09-17T23:26:36.026Z,93.13
2022-09-17T23:29:05.222Z,92.96
2022-09-17T23:31:34.926Z,93.00
2022-09-17T23:34:04.606Z,93.16
2022-09-17T23:36:35.111Z,93.03
2022-09-17T23:39:03.048Z,93.38
2022-09-17T23:41:36.615Z,93.02
2022-09-17T23:44:10.706Z,93.73
2022-09-17T23:46:41.577Z,93.38
2022-09-17T23:49:11.404Z,93.83
2022-09-17T23:51:38.922Z,93.75
2022-09-17T23:54:07.364Z,93.56
2022-09-17T23:56:34.697Z,93.61
2022-09-17T23:59:04.081Z,93.65
